createdAt,value
2019-05-23T00:03:15.517Z,20.20
2019-05-23T00:08:39.868Z,20.10
2019-05-23T00:13:49.943Z,20.00
2019-05-23T00:18:57.298Z,20.00
2019-05-23T00:24:02.936Z,20.00
2019-05-23T00:29:10.985Z,20.00
2019-05-23T00:34:18.200Z,19.90
2019-05-23T00:39:24.213Z,19.90
2019-05-23T00:44:30.522Z,19.90
2019-05-23T00:49:36.016Z,19.90
2019-05-23T00:54:42.341Z,19.90
2019-05-23T00:59:49.119Z,19.90
2019-05-23T01:04:55.968Z,19.90
2019-05-23T01:10:01.548Z,19.90
2019-05-23T01:15:08.507Z,19.90
2019-05-23T01:20:17.897Z,19.90
2019-05-23T01:25:24.647Z,19.90
2019-05-23T01:30:36.245Z,19.90
2019-05-23T01:35:42.750Z,19.90
2019-05-23T01:40:49.388Z,20.00
2019-05-23T01:45:54.812Z,20.00
2019-05-23T01:51:01.334Z,20.10
2019-05-23T01:56:08.967Z,20.00
2019-05-23T02:01:16.094Z,20.00
2019-05-23T02:06:21.940Z,20.00
2019-05-23T02:11:27.534Z,20.00
2019-05-23T02:16:33.273Z,20.00
2019-05-23T02:21:38.837Z,20.00
2019-05-23T02:26:44.453Z,20.10
2019-05-23T02:31:51.054Z,20.10
2019-05-23T02:36:58.347Z,20.10
2019-05-23T02:42:22.624Z,20.10
2019-05-23T02:47:38.906Z,20.00
2019-05-23T02:52:49.332Z,20.00
2019-05-23T02:57:56.921Z,19.90
2019-05-23T03:03:06.991Z,19.80
2019-05-23T03:08:14.517Z,19.80
2019-05-23T03:13:21.848Z,19.70
2019-05-23T03:18:34.060Z,19.60
2019-05-23T03:23:37.289Z,19.60
2019-05-23T03:28:42.742Z,19.60
2019-05-23T03:33:49.846Z,19.60
2019-05-23T03:38:55.522Z,19.60
2019-05-23T03:44:03.184Z,19.60
2019-05-23T03:49:11.267Z,19.60
2019-05-23T03:54:18.830Z,19.70
2019-05-23T03:59:27.293Z,19.60
2019-05-23T04:04:33.774Z,19.60
2019-05-23T04:09:39.303Z,19.70
2019-05-23T04:14:47.300Z,19.70
2019-05-23T04:19:53.245Z,19.70
2019-05-23T04:25:01.800Z,19.70
2019-05-23T04:30:07.852Z,19.70
2019-05-23T04:35:13.546Z,19.70
2019-05-23T04:40:19.685Z,19.70
2019-05-23T04:45:25.764Z,19.70
2019-05-23T04:50:32.097Z,19.70
2019-05-23T04:55:39.460Z,19.70
2019-05-23T05:00:44.914Z,19.60
2019-05-23T05:05:51.551Z,19.60
2019-05-23T05:10:57.929Z,19.50
2019-05-23T05:16:03.716Z,19.50
2019-05-23T05:21:09.605Z,19.50
2019-05-23T05:26:22.886Z,19.50
2019-05-23T05:31:28.511Z,19.40
2019-05-23T05:36:34.514Z,19.40
2019-05-23T05:41:41.325Z,19.40
2019-05-23T05:46:48.690Z,19.40
2019-05-23T05:51:54.444Z,19.30
2019-05-23T05:57:00.742Z,19.30
2019-05-23T06:02:09.365Z,19.30
2019-05-23T06:07:34.067Z,19.30
2019-05-23T06:12:40.573Z,19.40
2019-05-23T06:17:47.523Z,19.40
2019-05-23T06:22:53.491Z,19.40
2019-05-23T06:28:00.106Z,19.40
2019-05-23T06:33:21.750Z,19.40
2019-05-23T06:38:13.224Z,19.40
2019-05-23T06:43:20.325Z,19.50
2019-05-23T06:48:26.847Z,19.50
2019-05-23T06:53:32.497Z,19.50
2019-05-23T06:58:39.587Z,19.50
2019-05-23T07:03:45.177Z,19.60
2019-05-23T07:08:50.869Z,19.70
2019-05-23T07:13:56.436Z,19.70
2019-05-23T07:19:01.957Z,19.80
2019-05-23T07:24:07.852Z,19.80
2019-05-23T07:29:13.347Z,19.80
2019-05-23T07:34:21.177Z,19.80
2019-05-23T07:39:27.042Z,19.80
2019-05-23T07:44:47.374Z,19.70
2019-05-23T07:49:40.401Z,19.80
2019-05-23T07:54:54.443Z,19.80
2019-05-23T08:00:00.614Z,19.70
2019-05-23T08:05:08.934Z,19.70
2019-05-23T08:10:30.928Z,19.70
2019-05-23T08:15:21.728Z,19.70
2019-05-23T08:20:28.061Z,19.60
2019-05-23T08:25:34.164Z,19.60
2019-05-23T08:30:39.954Z,19.60
2019-05-23T08:35:46.182Z,19.60
2019-05-23T08:40:53.536Z,19.50
2019-05-23T08:45:59.197Z,19.50
2019-05-23T08:51:05.157Z,19.60
2019-05-23T08:56:18.726Z,19.70
2019-05-23T09:01:19.084Z,19.70
2019-05-23T09:06:26.620Z,19.80
2019-05-23T09:11:33.015Z,19.90
2019-05-23T09:16:39.529Z,20.00
2019-05-23T09:21:46.816Z,20.00
2019-05-23T09:26:53.320Z,20.10
2019-05-23T09:31:58.672Z,20.10
2019-05-23T09:37:05.170Z,20.00
2019-05-23T09:42:12.132Z,20.10
2019-05-23T09:47:18.693Z,20.10
2019-05-23T09:52:25.057Z,20.10
2019-05-23T09:57:31.047Z,20.20
2019-05-23T10:02:36.721Z,20.20
2019-05-23T10:07:42.587Z,20.20
2019-05-23T10:12:48.103Z,20.20
2019-05-23T10:17:53.678Z,20.20
2019-05-23T10:22:59.288Z,20.20
2019-05-23T10:28:06.281Z,20.20
2019-05-23T10:33:13.306Z,20.20
2019-05-23T10:38:19.427Z,20.20
2019-05-23T10:43:24.920Z,20.20
2019-05-23T10:48:31.066Z,20.30
2019-05-23T10:53:36.616Z,20.40
2019-05-23T10:58:42.227Z,20.50
2019-05-23T11:03:47.662Z,20.60
2019-05-23T11:08:53.472Z,20.70
2019-05-23T11:13:59.591Z,20.80
2019-05-23T11:19:06.577Z,20.80
2019-05-23T11:24:12.248Z,20.90
2019-05-23T11:29:18.024Z,20.90
2019-05-23T11:34:23.930Z,21.00
2019-05-23T11:39:29.581Z,21.10
2019-05-23T11:44:35.044Z,21.20
2019-05-23T11:49:41.511Z,21.40
2019-05-23T11:54:49.279Z,21.60
2019-05-23T11:59:54.837Z,21.70
2019-05-23T12:05:03.281Z,21.90
2019-05-23T12:10:11.109Z,22.10
2019-05-23T12:15:22.053Z,22.10
2019-05-23T12:20:27.696Z,22.30
2019-05-23T12:25:34.587Z,22.30
2019-05-23T12:30:40.069Z,22.30
2019-05-23T12:35:45.663Z,22.40
2019-05-23T12:40:51.655Z,22.40
2019-05-23T12:45:57.198Z,22.40
2019-05-23T12:51:03.927Z,22.50
2019-05-23T12:56:09.829Z,22.50
2019-05-23T13:01:16.980Z,22.50
2019-05-23T13:06:22.723Z,22.60
2019-05-23T13:11:28.938Z,22.60
2019-05-23T13:16:34.655Z,22.60
2019-05-23T13:21:40.342Z,22.70
2019-05-23T13:26:45.814Z,22.70
2019-05-23T13:31:51.354Z,22.70
2019-05-23T13:36:57.293Z,22.70
2019-05-23T13:42:03.417Z,22.80
2019-05-23T13:47:09.000Z,22.80
2019-05-23T13:52:14.715Z,22.70
2019-05-23T13:57:20.367Z,22.70
2019-05-23T14:02:25.844Z,22.70
2019-05-23T14:07:33.288Z,22.80
2019-05-23T14:12:39.259Z,22.80
2019-05-23T14:17:45.006Z,22.90
2019-05-23T14:22:58.413Z,23.00
2019-05-23T14:28:06.679Z,23.10
2019-05-23T14:33:23.586Z,23.20
2019-05-23T14:38:31.901Z,23.30
2019-05-23T14:43:37.678Z,23.50
2019-05-23T14:48:55.227Z,23.60
2019-05-23T14:54:06.485Z,23.70
2019-05-23T14:59:11.991Z,23.70
2019-05-23T15:04:17.793Z,23.80
2019-05-23T15:09:23.794Z,23.90
2019-05-23T15:14:29.341Z,23.90
2019-05-23T15:19:44.275Z,23.90
2019-05-23T15:24:42.303Z,23.80
2019-05-23T15:29:47.816Z,23.80
2019-05-23T15:34:53.365Z,23.80
2019-05-23T15:39:59.088Z,23.70
2019-05-23T15:45:05.476Z,23.60
2019-05-23T15:50:13.606Z,23.50
2019-05-23T15:55:29.332Z,23.40
2019-05-23T16:01:02.944Z,23.40
2019-05-23T16:06:11.526Z,23.40
2019-05-23T16:11:18.186Z,23.40
2019-05-23T16:16:24.198Z,23.40
2019-05-23T16:21:30.755Z,23.40
2019-05-23T16:26:36.581Z,23.60
2019-05-23T16:31:42.917Z,23.70
2019-05-23T16:36:48.543Z,23.80
2019-05-23T16:41:54.319Z,24.00
2019-05-23T16:47:00.027Z,24.20
2019-05-23T16:52:05.755Z,24.20
2019-05-23T16:57:30.084Z,24.30
2019-05-23T17:02:45.524Z,24.30
2019-05-23T17:08:15.207Z,24.30
2019-05-23T17:13:48.857Z,24.20
2019-05-23T17:19:02.870Z,24.20
2019-05-23T17:24:28.574Z,24.10
2019-05-23T17:29:46.668Z,24.10
2019-05-23T17:34:52.502Z,23.90
2019-05-23T17:39:59.656Z,23.90
2019-05-23T17:45:05.707Z,23.80
2019-05-23T17:50:12.451Z,23.70
2019-05-23T17:55:18.033Z,23.60
2019-05-23T18:00:27.204Z,23.50
2019-05-23T18:05:33.607Z,23.40
2019-05-23T18:10:45.291Z,23.30
2019-05-23T18:15:47.270Z,23.30
2019-05-23T18:20:53.045Z,23.20
2019-05-23T18:25:58.624Z,23.10
2019-05-23T18:31:15.182Z,23.10
2019-05-23T18:36:22.425Z,23.00
2019-05-23T18:41:28.980Z,22.90
2019-05-23T18:46:39.500Z,22.90
2019-05-23T18:51:45.340Z,22.80
2019-05-23T18:56:50.865Z,22.80
2019-05-23T19:01:56.763Z,22.70
2019-05-23T19:07:02.992Z,22.70
2019-05-23T19:12:09.937Z,22.60
2019-05-23T19:17:15.341Z,22.60
2019-05-23T19:22:22.380Z,22.60
2019-05-23T19:27:28.051Z,22.60
2019-05-23T19:32:33.899Z,22.50
2019-05-23T19:37:39.717Z,22.50
2019-05-23T19:42:45.306Z,22.50
2019-05-23T19:47:50.835Z,22.40
2019-05-23T19:52:56.414Z,22.40
2019-05-23T19:58:02.158Z,22.40
2019-05-23T20:03:09.643Z,22.40
2019-05-23T20:08:15.653Z,22.40
2019-05-23T20:13:22.442Z,22.40
2019-05-23T20:18:28.718Z,22.40
2019-05-23T20:23:35.735Z,22.40
2019-05-23T20:28:42.224Z,22.40
2019-05-23T20:33:48.445Z,22.40
2019-05-23T20:38:54.289Z,22.40
2019-05-23T20:44:00.009Z,22.40
2019-05-23T20:49:07.274Z,22.40
2019-05-23T20:54:13.928Z,22.40
2019-05-23T20:59:19.719Z,22.50
2019-05-23T21:04:25.738Z,22.40
2019-05-23T21:09:31.785Z,22.40
2019-05-23T21:14:37.671Z,22.40
2019-05-23T21:19:43.350Z,22.40
2019-05-23T21:24:50.350Z,22.40
2019-05-23T21:29:56.202Z,22.40
2019-05-23T21:35:02.182Z,22.40
2019-05-23T21:40:10.732Z,22.40
2019-05-23T21:45:16.822Z,22.40
2019-05-23T21:50:23.003Z,22.40
2019-05-23T21:55:38.886Z,22.40
2019-05-23T22:01:23.673Z,22.40
2019-05-23T22:06:31.446Z,22.40
2019-05-23T22:11:37.369Z,22.40
2019-05-23T22:16:43.124Z,22.40
2019-05-23T22:21:49.268Z,22.40
2019-05-23T22:26:55.211Z,22.30
2019-05-23T22:32:01.180Z,22.40
2019-05-23T22:37:20.165Z,22.40
2019-05-23T22:42:27.303Z,22.40
2019-05-23T22:47:34.636Z,22.30
2019-05-23T22:52:40.231Z,22.30
2019-05-23T22:57:48.226Z,22.30
2019-05-23T23:02:54.971Z,22.30
2019-05-23T23:08:01.182Z,22.30
2019-05-23T23:13:07.824Z,22.30
2019-05-23T23:18:15.047Z,22.20
2019-05-23T23:23:21.038Z,22.20
2019-05-23T23:28:27.013Z,22.20
2019-05-23T23:33:32.539Z,22.20
2019-05-23T23:38:38.338Z,22.20
2019-05-23T23:43:57.919Z,22.20
2019-05-23T23:49:09.141Z,22.10
2019-05-23T23:54:32.761Z,22.10
2019-05-23T23:59:37.373Z,22.10
